South Middleton, Pennsylvania
Current Conditions -  °F | °C
As of 1:35 PM on Wednesday 26 Nov 2014 (Local Time) from KCXY Reporting Station
Light Snow Light Snow  
Wind Chill: 33°   Ceiling: 300
Heat Index: 33°   Visibility: 1mi
Dew Point: 32°   Wind: 3mph
Humidity: 96%   Direction: 310°NW
Pressure: 29.96"   Gusts: NA
Location:  40.1478°N, 77.1164°W
Report Text: KCXY 261835Z 31003KT 1SM R08/5000V5500FT -SN BR OVC003 01/00 A2996 RMK AO2 PRESFR P0002 T00060000
Loading
Personal Weather Stations






























Interactive Weather Map New forecast layout! Learn more

10-Day Weather Forecast

Advertisements
Track Severe Weather on mobile